createdAt,value
2024-04-10T00:00:28.194Z,101102.625
2024-04-10T00:01:01.856Z,101107.0234375
2024-04-10T00:02:28.781Z,101100.015625
2024-04-10T00:03:28.258Z,101106.03515625
2024-04-10T00:04:28.310Z,101109.4921875
2024-04-10T00:04:58.176Z,101108.58203125
2024-04-10T00:05:28.480Z,101115.58984375
2024-04-10T00:05:58.102Z,101115.52734375
2024-04-10T00:06:31.785Z,101113.74609375
2024-04-10T00:07:28.228Z,101106.7734375
2024-04-10T00:08:58.027Z,101107.53515625
2024-04-10T00:09:58.007Z,101111.8125
2024-04-10T00:10:58.125Z,101117.8515625
2024-04-10T00:11:28.179Z,101115.26953125
2024-04-10T00:12:04.237Z,101126.58203125
2024-04-10T00:13:28.039Z,101130.015625
2024-04-10T00:14:58.170Z,101122.98046875
2024-04-10T00:15:58.096Z,101128.109375
2024-04-10T00:17:33.847Z,101125.3203125
2024-04-10T00:18:28.153Z,101123.56640625
2024-04-10T00:18:58.293Z,101123.5078125
2024-04-10T00:19:58.052Z,101124.32421875
2024-04-10T00:20:28.336Z,101121.71875
2024-04-10T00:21:28.169Z,101121.71875
2024-04-10T00:22:28.204Z,101121.6875
2024-04-10T00:23:58.153Z,101128.51171875
2024-04-10T00:24:27.992Z,101132.84375
2024-04-10T00:24:58.162Z,101131.9375
2024-04-10T00:25:58.225Z,101126.6328125
2024-04-10T00:26:58.172Z,101137.05859375
2024-04-10T00:27:58.270Z,101132.69140625
2024-04-10T00:28:31.828Z,101133.54296875
2024-04-10T00:29:28.281Z,101133.54296875
2024-04-10T00:30:28.205Z,101136.99609375
2024-04-10T00:30:58.020Z,101132.6640625
2024-04-10T00:31:28.222Z,101136.99609375
2024-04-10T00:32:28.489Z,101136.99609375
2024-04-10T00:33:28.403Z,101131.78515625
2024-04-10T00:34:03.863Z,101132.59765625
2024-04-10T00:34:58.188Z,101134.328125
2024-04-10T00:35:28.071Z,101129.08203125
2024-04-10T00:36:58.208Z,101123.77734375
2024-04-10T00:37:58.192Z,101130.78125
2024-04-10T00:38:28.026Z,101127.234375
2024-04-10T00:38:58.186Z,101131.56640625
2024-04-10T00:39:33.716Z,101128.9296875
2024-04-10T00:40:58.070Z,101136.77734375
2024-04-10T00:41:28.218Z,101140.26171875
2024-04-10T00:41:58.041Z,101140.26171875
2024-04-10T00:42:28.466Z,101138.50390625
2024-04-10T00:43:58.108Z,101135.08203125
2024-04-10T00:45:05.623Z,101141.140625
2024-04-10T00:46:28.006Z,101135.8671875
2024-04-10T00:48:28.220Z,101140.203125
2024-04-10T00:48:58.393Z,101140.13671875
2024-04-10T00:49:28.038Z,101140.984375
2024-04-10T00:49:58.314Z,101133.13671875
2024-04-10T00:50:33.841Z,101134.046875
2024-04-10T00:50:58.485Z,101135.8046875
2024-04-10T00:51:58.010Z,101127.203125
2024-04-10T00:52:58.137Z,101141.9921875
2024-04-10T00:53:58.023Z,101135.8671875
2024-04-10T00:54:28.193Z,101143.62109375
2024-04-10T00:56:03.749Z,101142.7421875
2024-04-10T00:57:28.002Z,101142.71484375
2024-04-10T00:58:28.029Z,101150.53125
2024-04-10T00:59:28.139Z,101150.53125
2024-04-10T00:59:58.221Z,101154.86328125
2024-04-10T01:00:58.210Z,101150.40234375
2024-04-10T01:01:33.803Z,101153.82421875
2024-04-10T01:02:58.057Z,101158.83984375
2024-04-10T01:03:28.227Z,101161.4453125
2024-04-10T01:03:58.289Z,101159.6875
2024-04-10T01:04:28.195Z,101161.51171875
2024-04-10T01:05:28.136Z,101162.45703125
2024-04-10T01:05:58.021Z,101165.97265625
2024-04-10T01:06:28.200Z,101166.78515625
2024-04-10T01:07:01.842Z,101162.390625
2024-04-10T01:07:58.208Z,101163.26953125
2024-04-10T01:08:28.074Z,101163.26953125
2024-04-10T01:09:28.004Z,101175.48046875
2024-04-10T01:09:58.241Z,101167.6640625
2024-04-10T01:10:58.158Z,101164.1484375
2024-04-10T01:11:58.313Z,101170.20703125
2024-04-10T01:12:30.241Z,101172.8125
2024-04-10T01:13:28.190Z,101172.8125
2024-04-10T01:14:28.277Z,101172.71484375
2024-04-10T01:14:58.011Z,101177.890625
2024-04-10T01:15:28.209Z,101176.16796875
2024-04-10T01:16:28.314Z,101180.49609375
2024-04-10T01:16:58.240Z,101174.40625
2024-04-10T01:18:03.785Z,101184.828125
2024-04-10T01:19:28.027Z,101177.79296875
2024-04-10T01:20:28.158Z,101184.73046875
2024-04-10T01:20:58.233Z,101183.0703125
2024-04-10T01:22:28.030Z,101189.90625
2024-04-10T01:23:33.923Z,101183.81640625
2024-04-10T01:24:58.033Z,101186.38671875
2024-04-10T01:26:28.405Z,101190.6484375
2024-04-10T01:26:58.017Z,101187.1640625
2024-04-10T01:27:58.042Z,101191.53125
2024-04-10T01:28:28.202Z,101192.41015625
2024-04-10T01:29:58.062Z,101192.375
2024-04-10T01:30:28.066Z,101195.859375
2024-04-10T01:30:58.147Z,101192.33984375
2024-04-10T01:31:28.047Z,101190.58203125
2024-04-10T01:31:58.243Z,101195.72265625
2024-04-10T01:32:58.419Z,101195.65625
2024-04-10T01:33:58.335Z,101198.2578125
2024-04-10T01:35:28.256Z,101197.37890625
2024-04-10T01:36:28.196Z,101203.4375
2024-04-10T01:37:28.221Z,101199.0390625
2024-04-10T01:37:58.065Z,101197.3125
2024-04-10T01:38:28.241Z,101205.125
2024-04-10T01:38:58.009Z,101201.7109375
2024-04-10T01:39:28.174Z,101201.7109375
2024-04-10T01:40:03.751Z,101199.10546875
2024-04-10T01:41:28.117Z,101200.83203125
2024-04-10T01:41:58.137Z,101202.51953125
2024-04-10T01:42:28.003Z,101201.7109375
2024-04-10T01:42:58.146Z,101211.28125
2024-04-10T01:43:28.031Z,101206.8515625
2024-04-10T01:43:58.156Z,101204.2109375
2024-04-10T01:44:58.184Z,101205.09375
2024-04-10T01:45:31.899Z,101205.9375
2024-04-10T01:46:28.189Z,101205.05859375
2024-04-10T01:46:58.068Z,101213.64453125
2024-04-10T01:47:28.396Z,101217.12890625
2024-04-10T01:47:58.199Z,101216.31640625
2024-04-10T01:48:58.078Z,101217.97265625
2024-04-10T01:49:28.196Z,101219.69921875
2024-04-10T01:49:58.025Z,101215.30078125
2024-04-10T01:50:28.222Z,101219.625
2024-04-10T01:51:05.619Z,101216.953125
2024-04-10T01:52:28.035Z,101224.73046875
2024-04-10T01:52:58.161Z,101224.73046875
2024-04-10T01:53:58.137Z,101229.9765625
2024-04-10T01:54:28.035Z,101224.8359375
2024-04-10T01:54:58.154Z,101223.921875
2024-04-10T01:55:58.199Z,101221.31640625
2024-04-10T01:56:31.908Z,101229.12890625
2024-04-10T01:57:58.053Z,101227.37109375
2024-04-10T01:58:57.999Z,101225.609375
2024-04-10T01:59:28.304Z,101228.21484375
2024-04-10T01:59:57.992Z,101228.25
2024-04-10T02:00:28.235Z,101234.3359375
2024-04-10T02:02:05.554Z,101229.09375
2024-04-10T02:03:28.126Z,101234.16015625
2024-04-10T02:03:58.344Z,101232.3984375
2024-04-10T02:04:58.206Z,101231.484375
2024-04-10T02:05:58.131Z,101233.1015625
2024-04-10T02:06:58.140Z,101227.12109375
2024-04-10T02:07:33.756Z,101231.375
2024-04-10T02:08:28.260Z,101233.90625
2024-04-10T02:08:58.010Z,101231.234375
2024-04-10T02:10:28.139Z,101225.98828125
2024-04-10T02:10:58.038Z,101231.15625
2024-04-10T02:11:28.263Z,101230.27734375
2024-04-10T02:11:58.086Z,101227.7109375
2024-04-10T02:13:03.653Z,101235.62890625
2024-04-10T02:14:28.100Z,101241.79296875
2024-04-10T02:15:28.016Z,101242.7421875
2024-04-10T02:15:58.134Z,101240.140625
2024-04-10T02:16:58.258Z,101251.46875
2024-04-10T02:18:31.882Z,101241.828125
2024-04-10T02:19:58.084Z,101252.20703125
2024-04-10T02:21:00.510Z,101253.78125
2024-04-10T02:21:28.203Z,101252.86328125
2024-04-10T02:22:28.077Z,101256.45703125
2024-04-10T02:24:03.676Z,101261.58984375
2024-04-10T02:25:28.048Z,101257.265625
2024-04-10T02:26:28.215Z,101261.5546875
2024-04-10T02:26:57.992Z,101258.0703125
2024-04-10T02:27:28.231Z,101261.5546875
2024-04-10T02:27:57.983Z,101260.63671875
2024-04-10T02:28:28.183Z,101261.40625
2024-04-10T02:28:58.063Z,101266.6484375
2024-04-10T02:29:33.790Z,101264.8515625
2024-04-10T02:30:58.004Z,101265.62109375
2024-04-10T02:31:28.142Z,101268.30078125
2024-04-10T02:32:28.445Z,101265.5859375
2024-04-10T02:32:58.237Z,101271.66796875
2024-04-10T02:33:28.346Z,101272.55078125
2024-04-10T02:33:58.106Z,101276.03515625
2024-04-10T02:36:28.023Z,101279.2890625
2024-04-10T02:37:28.499Z,101276.6484375
2024-04-10T02:38:28.344Z,101273.1640625
2024-04-10T02:39:28.273Z,101276.57421875
2024-04-10T02:39:58.014Z,101272.32421875
2024-04-10T02:40:33.718Z,101273.203125
2024-04-10T02:41:58.029Z,101275.8046875
2024-04-10T02:42:58.003Z,101276.7265625
2024-04-10T02:43:28.212Z,101276.796875
2024-04-10T02:44:28.241Z,101277.609375
2024-04-10T02:44:58.070Z,101273.203125
2024-04-10T02:45:28.211Z,101279.25
2024-04-10T02:46:03.766Z,101280.01953125
2024-04-10T02:47:28.128Z,101280.01953125
2024-04-10T02:47:58.364Z,101269.68359375
2024-04-10T02:48:58.220Z,101280.08984375
2024-04-10T02:50:28.221Z,101276.6484375
2024-04-10T02:50:57.998Z,101286.21484375
2024-04-10T02:51:33.738Z,101283.61328125
2024-04-10T02:52:58.086Z,101287.2109375
2024-04-10T02:53:58.037Z,101283.8046875
2024-04-10T02:55:28.137Z,101283.11328125
2024-04-10T02:56:28.303Z,101287.625
2024-04-10T02:57:03.723Z,101290.23046875
2024-04-10T02:57:58.173Z,101291.3671875
2024-04-10T02:58:28.027Z,101293.23828125
2024-04-10T02:59:58.164Z,101294.234375
2024-04-10T03:00:58.145Z,101291.7734375
2024-04-10T03:01:58.210Z,101298.078125
2024-04-10T03:03:28.556Z,101293.96875
2024-04-10T03:04:28.266Z,101301.04296875
2024-04-10T03:04:58.118Z,101302.91015625
2024-04-10T03:05:28.318Z,101303.82421875
2024-04-10T03:06:28.122Z,101303.05078125
2024-04-10T03:07:28.113Z,101309.1796875
2024-04-10T03:08:58.217Z,101318.86328125
2024-04-10T03:09:58.202Z,101321.46484375
2024-04-10T03:10:28.005Z,101323.19140625
2024-04-10T03:10:58.241Z,101316.2890625
2024-04-10T03:11:58.368Z,101324.00390625
2024-04-10T03:12:58.100Z,101330.05859375
2024-04-10T03:13:31.853Z,101328.296875
2024-04-10T03:14:28.240Z,101327.3828125
2024-04-10T03:14:58.041Z,101326.5
2024-04-10T03:15:28.167Z,101326.5390625
2024-04-10T03:15:58.044Z,101332.59375
2024-04-10T03:16:28.246Z,101335.19921875
2024-04-10T03:16:58.109Z,101336.0078125
2024-04-10T03:17:58.127Z,101333.328125
2024-04-10T03:19:03.699Z,101336.70703125
2024-04-10T03:19:58.229Z,101341.109375
2024-04-10T03:20:28.252Z,101342.02734375
2024-04-10T03:20:58.111Z,101335.9375
2024-04-10T03:21:58.215Z,101348.9609375
2024-04-10T03:22:58.220Z,101341.14453125
2024-04-10T03:23:28.167Z,101348.15625
2024-04-10T03:23:58.234Z,101346.4296875
2024-04-10T03:25:28.195Z,101348.22265625
2024-04-10T03:26:28.375Z,101352.734375
2024-04-10T03:26:58.008Z,101352.76953125
2024-04-10T03:27:58.016Z,101354.67578125
2024-04-10T03:28:28.208Z,101349.46484375
2024-04-10T03:30:01.993Z,101358.19921875
2024-04-10T03:31:28.019Z,101358.26953125
2024-04-10T03:32:28.164Z,101357.4609375
2024-04-10T03:32:58.552Z,101356.61328125
2024-04-10T03:33:28.178Z,101360.171875
2024-04-10T03:34:58.232Z,101361.15625
2024-04-10T03:35:31.901Z,101359.4296875
2024-04-10T03:35:58.238Z,101360.3125
2024-04-10T03:36:58.016Z,101358.5859375
2024-04-10T03:37:28.207Z,101359.36328125
2024-04-10T03:38:28.345Z,101357.70703125
2024-04-10T03:39:58.004Z,101361.23046875
2024-04-10T03:40:28.229Z,101362.953125
2024-04-10T03:41:58.257Z,101362.9921875
2024-04-10T03:42:58.261Z,101356.015625
2024-04-10T03:43:58.223Z,101359.46875
2024-04-10T03:45:28.013Z,101362.109375
2024-04-10T03:45:58.194Z,101362.109375
2024-04-10T03:46:33.842Z,101362.14453125
2024-04-10T03:47:58.174Z,101361.26171875
2024-04-10T03:48:58.108Z,101371.76171875
2024-04-10T03:49:28.118Z,101369.15234375
2024-04-10T03:49:58.060Z,101368.30859375
2024-04-10T03:50:28.228Z,101363.9375
2024-04-10T03:51:28.202Z,101366.546875
2024-04-10T03:53:28.290Z,101368.30859375
2024-04-10T03:54:58.169Z,101368.34375
2024-04-10T03:55:58.284Z,101363.234375
2024-04-10T03:57:33.738Z,101369.3984375
2024-04-10T03:58:58.090Z,101373.6953125
2024-04-10T03:59:58.008Z,101366.7578125
2024-04-10T04:00:28.163Z,101373.6953125
2024-04-10T04:00:58.055Z,101368.37890625
2024-04-10T04:01:58.089Z,101370.9140625
2024-04-10T04:02:28.322Z,101372.67578125
2024-04-10T04:03:05.812Z,101371.796875
2024-04-10T04:04:28.275Z,101374.3671875
2024-04-10T04:05:28.208Z,101377.890625
2024-04-10T04:06:27.997Z,101384.8671875
2024-04-10T04:06:58.143Z,101383.06640625
2024-04-10T04:07:58.181Z,101383.9140625
2024-04-10T04:08:32.051Z,101387.296875
2024-04-10T04:10:28.208Z,101397.54296875
2024-04-10T04:11:58.691Z,101395.78125
2024-04-10T04:12:28.245Z,101408.0078125
2024-04-10T04:13:28.040Z,101397.6484375
2024-04-10T04:15:58.145Z,101406.20703125
2024-04-10T04:16:28.087Z,101403.6015625
2024-04-10T04:16:58.209Z,101406.20703125
2024-04-10T04:17:58.226Z,101407.05078125
2024-04-10T04:18:28.053Z,101404.375
2024-04-10T04:18:58.140Z,101406.1015625
2024-04-10T04:19:31.794Z,101407.82421875
2024-04-10T04:20:28.237Z,101397.4375
2024-04-10T04:21:28.137Z,101406.20703125
2024-04-10T04:22:28.214Z,101402.61328125
2024-04-10T04:22:58.066Z,101403.45703125
2024-04-10T04:23:28.192Z,101406.1015625
2024-04-10T04:25:01.861Z,101407.82421875
2024-04-10T04:25:58.175Z,101410.4296875
2024-04-10T04:26:28.101Z,101415.60546875
2024-04-10T04:27:28.032Z,101408.484375
2024-04-10T04:27:58.143Z,101408.375
2024-04-10T04:28:28.083Z,101415.3125
2024-04-10T04:28:58.259Z,101410.83203125
2024-04-10T04:29:58.187Z,101408.15234375
2024-04-10T04:31:28.206Z,101412.21875
2024-04-10T04:32:58.391Z,101417.2421875
2024-04-10T04:34:28.161Z,101415.36328125
2024-04-10T04:34:58.127Z,101420.53515625
2024-04-10T04:36:05.589Z,101421.37890625
2024-04-10T04:36:27.988Z,101421.3046875
2024-04-10T04:37:28.003Z,101429.91796875
2024-04-10T04:38:28.043Z,101435.015625
2024-04-10T04:39:28.017Z,101432.484375
2024-04-10T04:39:58.171Z,101435.89453125
2024-04-10T04:40:58.269Z,101441.1796875
2024-04-10T04:42:28.174Z,101440.22265625
2024-04-10T04:43:28.129Z,101447.26953125
2024-04-10T04:43:58.030Z,101447.30859375
2024-04-10T04:44:28.284Z,101447.421875
2024-04-10T04:45:28.240Z,101458.80859375
2024-04-10T04:46:28.238Z,101458.80859375
2024-04-10T04:47:03.881Z,101460.48828125
2024-04-10T04:48:28.055Z,101462.25
2024-04-10T04:48:58.212Z,101464.015625
2024-04-10T04:49:28.021Z,101468.41796875
2024-04-10T04:49:58.227Z,101470.109375
2024-04-10T04:50:58.182Z,101480.52734375
2024-04-10T04:51:58.202Z,101474.39453125
2024-04-10T04:53:28.188Z,101477.8828125
2024-04-10T04:54:28.197Z,101485.73828125
2024-04-10T04:54:58.017Z,101484.85546875
2024-04-10T04:55:58.117Z,101480.52734375
2024-04-10T04:56:28.197Z,101483.20703125
2024-04-10T04:56:58.027Z,101485.8125
2024-04-10T04:57:28.194Z,101480.6015625
2024-04-10T04:58:58.259Z,101486.7734375
2024-04-10T04:59:28.102Z,101490.296875
2024-04-10T04:59:58.237Z,101492.984375
2024-04-10T05:01:58.097Z,101490.578125
2024-04-10T05:02:28.134Z,101500.99609375
2024-04-10T05:02:58.274Z,101493.1015625
2024-04-10T05:04:28.369Z,101492.94140625
2024-04-10T05:05:28.282Z,101496.4296875
2024-04-10T05:05:58.018Z,101498.11328125
2024-04-10T05:06:28.210Z,101490.1796875
2024-04-10T05:07:28.174Z,101499.5625
2024-04-10T05:08:28.424Z,101500.359375
2024-04-10T05:09:58.162Z,101502.6875
2024-04-10T05:10:58.226Z,101500.87890625
2024-04-10T05:12:00.779Z,101501.76171875
2024-04-10T05:12:58.136Z,101509.57421875
2024-04-10T05:13:28.127Z,101510.5
2024-04-10T05:14:33.891Z,101501.68359375
2024-04-10T05:15:58.077Z,101507.69140625
2024-04-10T05:16:28.338Z,101511.97265625
2024-04-10T05:17:28.271Z,101514.62109375
2024-04-10T05:18:28.289Z,101518.9453125
2024-04-10T05:20:03.792Z,101511.0546875
2024-04-10T05:21:28.044Z,101527.640625
2024-04-10T05:21:58.108Z,101521.59375
2024-04-10T05:22:58.260Z,101520.75390625
2024-04-10T05:23:58.151Z,101521.7109375
2024-04-10T05:24:58.205Z,101520.796875
2024-04-10T05:26:28.705Z,101523.5234375
2024-04-10T05:26:58.007Z,101528.73046875
2024-04-10T05:27:58.001Z,101525.28515625
2024-04-10T05:28:58.092Z,101521.83984375
2024-04-10T05:30:28.177Z,101526.2421875
2024-04-10T05:31:03.781Z,101528.9375
2024-04-10T05:31:58.146Z,101530.7734375
2024-04-10T05:32:58.360Z,101529.9375
2024-04-10T05:33:28.092Z,101529.09765625
2024-04-10T05:34:58.240Z,101540.44140625
2024-04-10T05:35:28.106Z,101544.0078125
2024-04-10T05:35:58.144Z,101556.234375
2024-04-10T05:36:31.838Z,101544.9296875
2024-04-10T05:37:28.102Z,101546.7734375
2024-04-10T05:38:28.362Z,101550.34375
2024-04-10T05:38:58.018Z,101556.5546875
2024-04-10T05:39:58.071Z,101556.87109375
2024-04-10T05:40:28.217Z,101561.40234375
2024-04-10T05:42:03.736Z,101562.0625
2024-04-10T05:43:28.022Z,101558.15625
2024-04-10T05:43:58.261Z,101560.0703125
2024-04-10T05:44:28.081Z,101565.51171875
2024-04-10T05:44:58.133Z,101563.96875
2024-04-10T05:45:28.015Z,101567.6484375
2024-04-10T05:45:58.193Z,101560.953125
2024-04-10T05:46:28.230Z,101569.109375
2024-04-10T05:46:58.305Z,101567.69921875
2024-04-10T05:47:33.904Z,101567.06640625
2024-04-10T05:48:28.476Z,101566.63671875
2024-04-10T05:48:58.260Z,101565.95703125
2024-04-10T05:49:28.151Z,101565.34765625
2024-04-10T05:49:58.052Z,101564.73046875
2024-04-10T05:51:28.162Z,101567.7734375
2024-04-10T05:52:28.206Z,101570.70703125
2024-04-10T05:53:58.195Z,101565.91796875
2024-04-10T05:54:28.023Z,101567.01953125
2024-04-10T05:54:58.125Z,101573.25
2024-04-10T05:55:28.032Z,101568.9609375
2024-04-10T05:55:58.208Z,101575.1328125
2024-04-10T05:56:58.135Z,101575.953125
2024-04-10T05:57:28.500Z,101576.92578125
2024-04-10T05:58:35.691Z,101573.609375
2024-04-10T05:59:58.015Z,101575.4609375
2024-04-10T06:01:28.334Z,101582.71875
2024-04-10T06:01:58.050Z,101579.3984375
2024-04-10T06:02:28.395Z,101582.2734375
2024-04-10T06:02:58.190Z,101574.86328125
2024-04-10T06:03:28.360Z,101578.9375
2024-04-10T06:04:58.195Z,101570.43359375
2024-04-10T06:06:28.186Z,101576.23828125
2024-04-10T06:07:28.226Z,101583.05078125
2024-04-10T06:08:28.254Z,101580.953125
2024-04-10T06:08:58.021Z,101583.45703125
2024-04-10T06:09:31.808Z,101591.171875
2024-04-10T06:09:58.060Z,101589.3203125
2024-04-10T06:10:58.085Z,101589.90625
2024-04-10T06:11:28.302Z,101584.63671875
2024-04-10T06:11:59.890Z,101590.75
2024-04-10T06:13:28.209Z,101582.39453125
2024-04-10T06:13:58.097Z,101589
2024-04-10T06:14:28.309Z,101586.72265625
2024-04-10T06:15:03.726Z,101582.6328125
2024-04-10T06:15:58.171Z,101582.06640625
2024-04-10T06:16:28.132Z,101578.71484375
2024-04-10T06:16:58.268Z,101578.01953125
2024-04-10T06:17:28.321Z,101582.56640625
2024-04-10T06:17:58.200Z,101578.29296875
2024-04-10T06:18:58.244Z,101583.6953125
2024-04-10T06:19:58.204Z,101573.375
2024-04-10T06:20:35.845Z,101575.23046875
2024-04-10T06:21:58.047Z,101576.22265625
2024-04-10T06:22:28.159Z,101572.7421875
2024-04-10T06:23:28.173Z,101570.96484375
2024-04-10T06:23:58.051Z,101567.4375
2024-04-10T06:24:28.211Z,101574.50390625
2024-04-10T06:24:58.018Z,101570.9765625
2024-04-10T06:25:28.220Z,101567.4453125
2024-04-10T06:26:01.961Z,101567.45703125
2024-04-10T06:27:28.002Z,101584.18359375
2024-04-10T06:27:58.201Z,101575.34765625
2024-04-10T06:28:28.075Z,101573.5859375
2024-04-10T06:29:28.129Z,101579.671875
2024-04-10T06:30:58.142Z,101579.60546875
2024-04-10T06:32:28.421Z,101575.1953125
2024-04-10T06:33:28.290Z,101573.40625
2024-04-10T06:34:28.374Z,101570.7421875
2024-04-10T06:35:28.238Z,101563.60546875
2024-04-10T06:36:28.306Z,101571.56640625
2024-04-10T06:37:58.238Z,101572.36328125
2024-04-10T06:38:28.196Z,101573.21875
2024-04-10T06:38:58.218Z,101574.89453125
2024-04-10T06:39:58.207Z,101583.50390625
2024-04-10T06:40:58.242Z,101579.97265625
2024-04-10T06:41:28.072Z,101585.28515625
2024-04-10T06:41:58.185Z,101582.7578125
2024-04-10T06:42:33.767Z,101578.4140625
2024-04-10T06:43:28.144Z,101579.40625
2024-04-10T06:43:58.088Z,101586.51171875
2024-04-10T06:44:58.040Z,101593.65625
2024-04-10T06:45:28.256Z,101582.21875
2024-04-10T06:46:28.111Z,101582.9453125
2024-04-10T06:48:05.890Z,101582.0234375
2024-04-10T06:48:28.452Z,101585.5703125
2024-04-10T06:49:28.203Z,101575.0078125
2024-04-10T06:50:28.042Z,101579.3828125
2024-04-10T06:50:58.201Z,101584.62890625
2024-04-10T06:51:58.214Z,101586.18359375
2024-04-10T06:52:28.022Z,101583.50390625
2024-04-10T06:52:58.169Z,101587.92578125
2024-04-10T06:54:28.219Z,101595.94140625
2024-04-10T06:55:28.163Z,101586.30859375
2024-04-10T06:55:58.068Z,101589.83203125
2024-04-10T06:57:28.145Z,101594.328125
2024-04-10T06:58:28.184Z,101587.18359375
2024-04-10T06:59:01.898Z,101590.6328125
2024-04-10T07:01:58.193Z,101603.0703125
2024-04-10T07:02:28.112Z,101598.59765625
2024-04-10T07:02:58.263Z,101596.765625
2024-04-10T07:03:58.211Z,101593.9921875
2024-04-10T07:04:33.822Z,101596.6875
2024-04-10T07:05:58.008Z,101600.890625
2024-04-10T07:06:58.021Z,101600.6328125
2024-04-10T07:08:28.295Z,101604.54296875
2024-04-10T07:09:28.179Z,101598.390625
2024-04-10T07:10:03.780Z,101595.765625
2024-04-10T07:11:28.098Z,101598.3671875
2024-04-10T07:12:28.135Z,101606.51953125
2024-04-10T07:13:28.051Z,101604.5703125
2024-04-10T07:13:58.197Z,101607.015625
2024-04-10T07:14:28.029Z,101602.44140625
2024-04-10T07:14:58.129Z,101604.94921875
2024-04-10T07:15:33.948Z,101606.671875
2024-04-10T07:16:29.067Z,101605.39453125
2024-04-10T07:16:58.082Z,101609.5
2024-04-10T07:17:28.224Z,101607.40625
2024-04-10T07:18:28.159Z,101609.421875
2024-04-10T07:18:58.322Z,101612.953125
2024-04-10T07:19:28.207Z,101615.69140625
2024-04-10T07:19:58.058Z,101613.9453125
2024-04-10T07:20:28.236Z,101606.0078125
2024-04-10T07:21:03.727Z,101611.4765625
2024-04-10T07:22:28.067Z,101609.63671875
2024-04-10T07:23:28.155Z,101610.609375
2024-04-10T07:24:00.826Z,101607.890625
2024-04-10T07:24:28.019Z,101606.9140625
2024-04-10T07:25:28.070Z,101611.00390625
2024-04-10T07:25:58.183Z,101609.8046875
2024-04-10T07:26:33.828Z,101606.83984375
2024-04-10T07:27:58.003Z,101611.5
2024-04-10T07:28:28.189Z,101614.953125
2024-04-10T07:28:58.405Z,101618.3984375
2024-04-10T07:29:28.143Z,101617.5234375
2024-04-10T07:29:58.008Z,101620.109375
2024-04-10T07:30:58.037Z,101618.140625
2024-04-10T07:31:28.198Z,101612.6875
2024-04-10T07:32:03.879Z,101612.4140625
2024-04-10T07:33:28.215Z,101608.31640625
2024-04-10T07:34:28.076Z,101621.39453125
2024-04-10T07:34:58.243Z,101621.6015625
2024-04-10T07:36:28.060Z,101627.42578125
2024-04-10T07:36:58.190Z,101626.0234375
2024-04-10T07:37:33.695Z,101639.4765625
2024-04-10T07:38:58.058Z,101634.359375
2024-04-10T07:39:28.144Z,101637.81640625
2024-04-10T07:40:28.190Z,101650.83203125
2024-04-10T07:40:58.091Z,101653.33984375
2024-04-10T07:41:28.302Z,101648.75390625
2024-04-10T07:42:28.386Z,101654.62890625
2024-04-10T07:43:58.247Z,101654.24609375
2024-04-10T07:44:58.081Z,101661
2024-04-10T07:45:58.143Z,101664.21484375
2024-04-10T07:46:58.288Z,101663.015625
2024-04-10T07:47:28.162Z,101668.1328125
2024-04-10T07:47:58.326Z,101668.8515625
2024-04-10T07:48:33.948Z,101667.84375
2024-04-10T07:49:28.293Z,101672.125
2024-04-10T07:49:58.073Z,101674.703125
2024-04-10T07:50:28.147Z,101677.3046875
2024-04-10T07:51:28.214Z,101670.23046875
2024-04-10T07:52:28.206Z,101672.70703125
2024-04-10T07:54:03.722Z,101675.33203125
2024-04-10T07:56:28.359Z,101674.515625
2024-04-10T07:56:58.199Z,101671.90234375
2024-04-10T07:57:58.214Z,101670.9609375
2024-04-10T07:58:58.289Z,101677.8828125
2024-04-10T08:00:28.332Z,101685.71875
2024-04-10T08:02:28.247Z,101680.33984375
2024-04-10T08:02:59.242Z,101679.4609375
2024-04-10T08:03:28.601Z,101683.8125
2024-04-10T08:05:58.174Z,101681.02734375
2024-04-10T08:06:28.030Z,101678.3203125
2024-04-10T08:06:58.148Z,101682.69140625
2024-04-10T08:07:58.275Z,101688.87109375
2024-04-10T08:08:58.146Z,101685.46484375
2024-04-10T08:09:58.212Z,101683.89453125
2024-04-10T08:11:28.150Z,101687.5703125
2024-04-10T08:11:58.145Z,101685.90234375
2024-04-10T08:12:28.345Z,101693.80859375
2024-04-10T08:12:58.022Z,101690.34765625
2024-04-10T08:13:58.053Z,101690.30078125
2024-04-10T08:14:28.258Z,101694.73828125
2024-04-10T08:15:28.153Z,101687.66015625
2024-04-10T08:16:01.924Z,101693.796875
2024-04-10T08:17:59.110Z,101699.2734375
2024-04-10T08:18:58.259Z,101699.34765625
2024-04-10T08:19:28.013Z,101701.98828125
2024-04-10T08:19:58.355Z,101695
2024-04-10T08:20:28.069Z,101692.4296875
2024-04-10T08:21:31.841Z,101698.6640625
2024-04-10T08:22:58.118Z,101693.6796875
2024-04-10T08:24:28.188Z,101695.6484375
2024-04-10T08:24:58.056Z,101700.9140625
2024-04-10T08:25:28.173Z,101695.69921875
2024-04-10T08:27:05.668Z,101695.8828125
2024-04-10T08:27:28.025Z,101701.20703125
2024-04-10T08:28:28.061Z,101692.44140625
2024-04-10T08:29:58.148Z,101695.83984375
2024-04-10T08:30:58.105Z,101695.7265625
2024-04-10T08:31:58.234Z,101696.59765625
2024-04-10T08:32:33.909Z,101704.53125
2024-04-10T08:33:28.479Z,101702.73828125
2024-04-10T08:33:58.356Z,101708.859375
2024-04-10T08:34:28.311Z,101703.59765625
2024-04-10T08:35:28.181Z,101707.859375
2024-04-10T08:36:28.266Z,101714.7890625
2024-04-10T08:37:28.191Z,101715.74609375
2024-04-10T08:38:05.643Z,101719.25390625
2024-04-10T08:39:28.042Z,101716.74609375
2024-04-10T08:40:28.049Z,101720.3203125
2024-04-10T08:40:58.207Z,101722.9609375